Time;durP1;ratioP1;P1;durP2;ratioP2;P2;SDS_P1;SDS_P2;PMS_P1;PMS_P2;Temp;Humidity;BMP_temperature;BMP_pressure;BME280_temperature;BME280_humidity;BME280_pressure;Samples;Min_cycle;Max_cycle;Signal;HPM_P1;HPM_P2
2023/02/07 00:00:12;;;;;;;20.40;7.77;;;2.90;96.40;;;;;;5052515;28;20059;-78
2023/02/07 00:02:42;;;;;;;23.23;8.40;;;2.90;96.60;;;;;;5052834;28;20029;-77
2023/02/07 00:05:08;;;;;;;25.67;8.60;;;2.90;96.70;;;;;;5054089;28;20029;-78
2023/02/07 00:07:33;;;;;;;20.37;8.20;;;2.90;96.80;;;;;;5035617;28;20039;-77
2023/02/07 00:09:59;;;;;;;19.90;8.57;;;3.00;97.00;;;;;;5052569;28;20017;-77
2023/02/07 00:12:25;;;;;;;20.10;8.67;;;2.90;97.10;;;;;;5052879;28;20029;-77
2023/02/07 00:14:50;;;;;;;21.90;8.93;;;2.90;97.20;;;;;;5052345;28;20049;-77
2023/02/07 00:17:16;;;;;;;26.17;8.30;;;2.90;97.30;;;;;;5052769;28;20119;-77
2023/02/07 00:19:42;;;;;;;23.00;9.63;;;2.90;97.40;;;;;;5053792;28;20408;-77
2023/02/07 00:22:07;;;;;;;25.83;9.23;;;2.90;97.50;;;;;;5035681;28;20037;-78
2023/02/07 00:24:33;;;;;;;31.00;10.40;;;2.80;97.50;;;;;;5035976;28;20039;-78
2023/02/07 00:26:58;;;;;;;24.07;9.80;;;2.90;97.60;;;;;;5035497;28;20025;-77
2023/02/07 00:29:24;;;;;;;28.13;9.83;;;2.80;97.70;;;;;;5052580;28;20056;-78
2023/02/07 00:31:50;;;;;;;30.67;10.77;;;2.80;97.80;;;;;;5019528;28;20082;-78
2023/02/07 00:34:16;;;;;;;28.27;11.20;;;2.80;97.90;;;;;;5052392;28;20036;-78
2023/02/07 00:36:41;;;;;;;30.20;10.73;;;2.70;98.00;;;;;;5052098;28;20482;-78
2023/02/07 00:39:12;;;;;;;26.40;9.50;;;2.80;98.00;;;;;;5019302;28;20029;-78
2023/02/07 00:41:38;;;;;;;25.83;11.27;;;2.80;98.10;;;;;;5052080;28;20457;-78
2023/02/07 00:44:04;;;;;;;30.83;9.90;;;2.70;98.10;;;;;;5035458;28;20036;-77
2023/02/07 00:46:30;;;;;;;26.63;10.23;;;2.70;98.50;;;;;;5053244;28;20033;-77
2023/02/07 00:48:56;;;;;;;27.40;11.10;;;2.80;98.40;;;;;;5053221;28;20071;-78
2023/02/07 00:51:24;;;;;;;28.87;10.77;;;2.60;98.40;;;;;;5052043;28;20436;-77
2023/02/07 00:53:53;;;;;;;30.30;11.23;;;2.60;98.50;;;;;;5051962;28;20017;-78
2023/02/07 00:56:20;;;;;;;26.70;10.27;;;2.60;98.60;;;;;;5051764;28;20123;-78
2023/02/07 00:58:46;;;;;;;28.60;10.60;;;2.60;98.60;;;;;;5052123;28;20382;-77
2023/02/07 01:01:12;;;;;;;23.70;10.87;;;2.70;98.70;;;;;;5052837;28;20025;-78
2023/02/07 01:03:38;;;;;;;24.77;11.57;;;2.60;98.70;;;;;;5053028;28;20074;-78
2023/02/07 01:06:04;;;;;;;27.90;12.30;;;2.50;98.80;;;;;;5034729;28;20029;-78
2023/02/07 01:08:30;;;;;;;28.97;10.47;;;2.50;98.80;;;;;;5052093;28;20033;-78
2023/02/07 01:10:56;;;;;;;22.57;10.07;;;2.50;98.90;;;;;;5051757;28;20017;-78
2023/02/07 01:13:22;;;;;;;23.97;10.73;;;2.50;99.00;;;;;;5051542;28;20029;-77
2023/02/07 01:15:48;;;;;;;30.80;9.50;;;2.40;99.00;;;;;;5051398;28;20033;-77
2023/02/07 01:18:14;;;;;;;26.67;10.63;;;2.40;99.00;;;;;;5035221;28;20186;-77
2023/02/07 01:20:40;;;;;;;29.10;11.30;;;2.40;99.10;;;;;;5051800;28;20519;-78
2023/02/07 01:23:07;;;;;;;24.27;10.60;;;2.40;99.20;;;;;;5034955;28;20033;-77
2023/02/07 01:25:32;;;;;;;22.90;9.43;;;2.40;99.20;;;;;;5051654;28;20060;-77
2023/02/07 01:27:58;;;;;;;27.13;10.43;;;2.30;99.20;;;;;;5034900;28;20429;-78
2023/02/07 01:30:24;;;;;;;29.00;10.87;;;2.30;99.50;;;;;;5051610;28;20473;-77
2023/02/07 01:32:49;;;;;;;22.63;9.57;;;2.40;99.40;;;;;;5035143;28;20051;-77
2023/02/07 01:35:15;;;;;;;24.50;9.47;;;2.40;99.50;;;;;;5036246;28;20029;-78
2023/02/07 01:37:41;;;;;;;25.73;10.40;;;2.20;99.40;;;;;;5022177;28;20037;-78
2023/02/07 01:40:07;;;;;;;28.37;9.97;;;2.20;99.40;;;;;;5056591;28;20062;-78
2023/02/07 01:42:33;;;;;;;21.77;9.70;;;2.20;99.40;;;;;;5055446;28;20032;-78
2023/02/07 01:45:25;;;;;;;27.13;10.10;;;2.20;99.40;;;;;;5022400;28;20021;-78
2023/02/07 01:47:54;;;;;;;24.37;9.57;;;2.10;99.40;;;;;;5049246;28;20045;-77
2023/02/07 01:50:21;;;;;;;25.93;10.03;;;2.10;99.50;;;;;;5056616;28;20047;-78
2023/02/07 01:52:48;;;;;;;26.20;10.33;;;2.10;99.50;;;;;;5056296;28;20048;-78
2023/02/07 01:55:19;;;;;;;25.43;9.60;;;2.10;99.50;;;;;;5055328;28;20427;-78
2023/02/07 01:57:45;;;;;;;22.93;9.63;;;2.00;99.50;;;;;;5055031;28;20041;-78
2023/02/07 02:00:14;;;;;;;26.37;10.30;;;2.00;99.50;;;;;;5054960;28;20032;-78
2023/02/07 02:02:40;;;;;;;28.97;10.73;;;1.90;99.50;;;;;;5055072;28;20083;-78
2023/02/07 02:05:06;;;;;;;26.37;11.07;;;1.90;99.60;;;;;;5055141;28;20040;-78
2023/02/07 02:07:33;;;;;;;25.00;10.70;;;1.90;99.60;;;;;;5054632;28;20021;-77
2023/02/07 02:09:59;;;;;;;25.53;11.60;;;1.90;99.70;;;;;;5055945;28;20068;-78
2023/02/07 02:12:48;;;;;;;26.63;10.33;;;1.80;99.70;;;;;;5055810;28;20426;-78
2023/02/07 02:15:34;;;;;;;28.80;11.43;;;1.80;99.70;;;;;;5054548;28;20084;-77
2023/02/07 02:18:18;;;;;;;30.63;11.13;;;1.80;99.80;;;;;;5055028;28;20029;-78
2023/02/07 02:21:18;;;;;;;17.88;7.68;;;1.80;99.70;;;;;;5055829;28;20029;-77
2023/02/07 02:24:33;;;;;;;28.70;10.63;;;1.70;99.70;;;;;;5056013;28;20033;-77
2023/02/07 02:27:39;;;;;;;26.30;10.27;;;1.70;99.80;;;;;;5024581;28;20029;-77
2023/02/07 02:30:23;;;;;;;26.43;10.23;;;1.70;99.80;;;;;;5055905;28;20477;-77
2023/02/07 02:33:26;;;;;;;26.90;11.00;;;1.70;99.70;;;;;;5055588;28;20095;-77
2023/02/07 02:35:55;;;;;;;26.20;10.47;;;1.70;99.70;;;;;;5055522;28;20029;-78
2023/02/07 02:38:55;;;;;;;27.50;11.43;;;1.70;99.80;;;;;;5054332;28;20033;-78
2023/02/07 02:41:27;;;;;;;29.20;12.37;;;1.70;99.90;;;;;;5055579;28;20104;-78
2023/02/07 02:44:01;;;;;;;28.80;12.00;;;1.60;99.90;;;;;;5054400;28;20029;-77
2023/02/07 02:46:34;;;;;;;28.73;11.68;;;1.70;99.90;;;;;;5053886;28;20025;-78
2023/02/07 02:49:01;;;;;;;28.97;13.37;;;1.70;99.90;;;;;;5055455;28;20021;-77
2023/02/07 02:51:31;;;;;;;26.73;11.97;;;1.60;99.90;;;;;;5055391;28;20029;-77
2023/02/07 02:53:59;;;;;;;29.83;13.40;;;1.60;99.90;;;;;;5054441;28;20048;-78
2023/02/07 02:57:08;;;;;;;32.43;12.90;;;1.60;99.90;;;;;;5055280;28;20041;-77
2023/02/07 02:59:59;;;;;;;25.67;12.27;;;1.50;99.90;;;;;;5044542;28;20123;-78
2023/02/07 03:02:46;;;;;;;28.70;11.90;;;1.50;99.90;;;;;;5054246;28;20025;-77
2023/02/07 03:06:05;;;;;;;27.23;12.70;;;1.50;99.90;;;;;;5053062;28;20115;-78
2023/02/07 03:08:44;;;;;;;32.03;12.30;;;1.40;99.90;;;;;;5011077;28;20033;-78
2023/02/07 03:11:14;;;;;;;30.33;12.83;;;1.40;99.90;;;;;;4995382;28;20036;-77
2023/02/07 03:13:50;;;;;;;38.17;14.03;;;1.40;99.90;;;;;;5034503;28;20055;-77
2023/02/07 03:16:22;;;;;;;29.60;13.47;;;1.30;99.90;;;;;;5053354;28;20121;-78
2023/02/07 03:19:09;;;;;;;27.87;12.83;;;1.30;99.90;;;;;;5054758;28;20147;-78
2023/02/07 03:21:48;;;;;;;30.83;13.93;;;1.30;99.90;;;;;;5055065;28;20021;-77
2023/02/07 03:24:35;;;;;;;31.40;12.93;;;1.30;99.90;;;;;;5053395;28;20378;-77
2023/02/07 03:27:05;;;;;;;32.20;13.30;;;1.30;99.90;;;;;;5053429;28;20028;-78
2023/02/07 03:29:33;;;;;;;32.67;14.07;;;1.20;99.90;;;;;;5053273;28;20036;-78
2023/02/07 03:32:01;;;;;;;30.87;12.50;;;1.20;99.90;;;;;;5053311;28;20029;-78
2023/02/07 03:34:44;;;;;;;31.37;13.73;;;1.20;99.90;;;;;;5053451;28;20079;-78
2023/02/07 03:37:24;;;;;;;29.30;14.20;;;1.20;99.90;;;;;;5052805;28;20155;-78
2023/02/07 03:39:50;;;;;;;29.30;13.30;;;1.20;99.90;;;;;;5054554;28;20025;-77
2023/02/07 03:42:37;;;;;;;32.40;13.37;;;1.20;99.90;;;;;;5054047;28;20025;-77
2023/02/07 03:45:06;;;;;;;31.70;13.10;;;1.10;99.90;;;;;;5054773;28;20029;-77
2023/02/07 03:47:32;;;;;;;32.60;12.93;;;1.10;99.90;;;;;;5053066;28;20017;-77
2023/02/07 03:49:57;;;;;;;29.77;13.93;;;1.10;99.90;;;;;;5054276;28;20370;-78
2023/02/07 03:52:23;;;;;;;27.37;12.03;;;1.00;99.90;;;;;;5052958;28;20035;-78
2023/02/07 03:54:48;;;;;;;34.97;14.20;;;1.20;99.90;;;;;;5053045;28;20442;-77
2023/02/07 03:57:14;;;;;;;34.97;15.77;;;1.10;99.90;;;;;;5053658;28;20551;-78
2023/02/07 03:59:40;;;;;;;31.70;15.07;;;1.10;99.90;;;;;;5036494;28;20029;-78
2023/02/07 04:02:05;;;;;;;36.67;14.70;;;1.10;99.90;;;;;;5019785;28;20377;-77
2023/02/07 04:04:31;;;;;;;30.20;13.70;;;1.20;99.90;;;;;;5035950;28;20120;-77
2023/02/07 04:06:57;;;;;;;32.47;14.33;;;1.00;99.90;;;;;;5035882;28;20029;-77
2023/02/07 04:09:22;;;;;;;31.10;14.53;;;1.00;99.90;;;;;;5036104;28;20033;-77
2023/02/07 04:11:49;;;;;;;29.70;14.07;;;1.00;99.90;;;;;;5052505;28;20465;-77
2023/02/07 04:14:17;;;;;;;32.10;13.43;;;1.00;99.90;;;;;;5054093;28;20049;-77
2023/02/07 04:16:43;;;;;;;30.47;13.40;;;0.90;99.90;;;;;;5052367;28;20049;-77
2023/02/07 04:19:08;;;;;;;32.00;12.57;;;0.90;99.90;;;;;;5053727;28;20422;-77
2023/02/07 04:21:34;;;;;;;37.63;14.47;;;0.90;99.90;;;;;;5036010;28;20040;-77
2023/02/07 04:24:00;;;;;;;29.03;14.17;;;0.90;99.90;;;;;;5052360;28;20021;-77
2023/02/07 04:26:25;;;;;;;29.93;13.63;;;0.80;99.90;;;;;;5036044;28;20139;-77
2023/02/07 04:28:51;;;;;;;35.23;13.97;;;0.90;99.90;;;;;;5035766;28;20048;-77
2023/02/07 04:31:16;;;;;;;32.33;13.80;;;0.90;99.90;;;;;;5052663;28;20094;-77
2023/02/07 04:33:42;;;;;;;29.80;14.47;;;0.90;99.90;;;;;;5035399;28;20033;-77
2023/02/07 04:36:08;;;;;;;30.27;14.73;;;0.80;99.90;;;;;;5035185;28;20045;-77
2023/02/07 04:38:34;;;;;;;33.80;14.37;;;0.70;99.90;;;;;;5035488;28;20428;-77
2023/02/07 04:41:03;;;;;;;31.40;14.57;;;0.80;99.90;;;;;;5035694;28;20052;-77
2023/02/07 04:43:29;;;;;;;35.17;15.73;;;0.70;99.90;;;;;;5052250;28;20389;-77
2023/02/07 04:45:55;;;;;;;32.37;14.57;;;0.80;99.90;;;;;;5052163;28;20029;-77
2023/02/07 04:48:20;;;;;;;32.60;15.20;;;0.70;99.90;;;;;;5053194;28;20040;-77
2023/02/07 04:50:46;;;;;;;31.93;15.07;;;0.70;99.90;;;;;;5018672;28;20036;-77
2023/02/07 04:53:12;;;;;;;32.17;14.97;;;0.60;99.90;;;;;;5035552;28;20029;-78
2023/02/07 04:55:38;;;;;;;40.13;17.07;;;0.70;99.90;;;;;;5051873;28;20032;-78
2023/02/07 04:58:04;;;;;;;31.30;14.57;;;0.70;99.90;;;;;;5053253;28;20055;-77
2023/02/07 05:00:30;;;;;;;37.57;15.70;;;0.60;99.90;;;;;;5051710;28;20029;-77
2023/02/07 05:02:56;;;;;;;36.83;16.30;;;0.60;99.90;;;;;;5051627;28;20501;-78
2023/02/07 05:05:21;;;;;;;31.87;14.97;;;0.60;99.90;;;;;;5053031;28;20033;-77
2023/02/07 05:07:47;;;;;;;39.27;16.77;;;0.60;99.90;;;;;;5035189;28;20036;-77
2023/02/07 05:10:13;;;;;;;45.53;16.50;;;0.60;99.90;;;;;;5034378;28;20032;-77
2023/02/07 05:12:38;;;;;;;42.10;17.07;;;0.50;99.90;;;;;;5035185;28;20028;-77
2023/02/07 05:15:04;;;;;;;40.80;17.13;;;0.60;99.90;;;;;;5034835;28;20057;-77
2023/02/07 05:17:33;;;;;;;42.93;18.40;;;0.50;99.90;;;;;;5052492;28;20481;-77
2023/02/07 05:20:02;;;;;;;41.67;17.97;;;0.50;99.90;;;;;;5051785;28;20433;-77
2023/02/07 05:22:28;;;;;;;48.47;18.47;;;0.40;99.90;;;;;;5052821;28;20025;-77
2023/02/07 05:24:53;;;;;;;41.70;17.50;;;0.40;99.90;;;;;;5052217;28;20044;-77
2023/02/07 05:27:19;;;;;;;43.63;17.33;;;0.40;99.90;;;;;;5056437;28;20031;-77
2023/02/07 05:29:44;;;;;;;41.67;17.23;;;0.30;99.90;;;;;;5062514;28;20044;-77
2023/02/07 05:34:58;;;;;;;41.17;17.40;;;0.40;99.90;;;;;;5054362;28;20049;-77
2023/02/07 05:37:24;;;;;;;47.77;17.37;;;0.30;99.90;;;;;;5030843;28;20045;-77
2023/02/07 05:39:50;;;;;;;45.70;17.23;;;0.30;99.90;;;;;;5030363;28;20021;-77
2023/02/07 05:42:16;;;;;;;38.73;16.17;;;0.30;99.90;;;;;;5032760;28;20417;-77
2023/02/07 05:44:41;;;;;;;42.50;17.60;;;0.30;99.90;;;;;;5031473;28;20040;-77
2023/02/07 05:47:07;;;;;;;37.33;16.90;;;0.30;99.90;;;;;;5032540;28;20087;-78
2023/02/07 05:49:33;;;;;;;39.60;17.80;;;0.30;99.90;;;;;;4998512;28;20034;-77
2023/02/07 05:51:59;;;;;;;41.80;18.00;;;0.30;99.90;;;;;;5015198;28;20056;-77
2023/02/07 05:54:24;;;;;;;53.43;19.80;;;0.30;99.90;;;;;;5031696;28;20072;-78
2023/02/07 05:56:50;;;;;;;47.67;19.47;;;0.30;99.90;;;;;;5015104;28;20440;-77
2023/02/07 05:59:16;;;;;;;41.70;17.30;;;0.30;99.90;;;;;;5015207;28;20048;-77
2023/02/07 06:01:41;;;;;;;45.53;18.70;;;0.30;99.90;;;;;;5031929;28;20030;-77
2023/02/07 06:04:07;;;;;;;54.73;19.20;;;0.30;99.90;;;;;;5032301;28;20067;-77
2023/02/07 06:06:33;;;;;;;47.60;19.30;;;0.20;99.90;;;;;;4999255;28;20121;-77
2023/02/07 06:08:58;;;;;;;46.90;19.77;;;0.20;99.90;;;;;;5031767;28;20069;-76
2023/02/07 06:11:24;;;;;;;51.47;19.80;;;0.20;99.90;;;;;;5015242;28;20117;-76
2023/02/07 06:13:49;;;;;;;53.47;21.03;;;0.30;99.90;;;;;;5032293;28;20461;-77
2023/02/07 06:16:15;;;;;;;50.37;19.67;;;0.30;99.90;;;;;;5033744;28;20033;-76
2023/02/07 06:18:41;;;;;;;47.63;19.77;;;0.30;99.90;;;;;;5042418;28;20140;-77
2023/02/07 06:21:06;;;;;;;53.33;21.17;;;0.30;99.90;;;;;;5055330;28;20029;-77
2023/02/07 06:23:32;;;;;;;46.63;18.43;;;0.30;99.90;;;;;;5023916;28;20053;-77
2023/02/07 06:25:58;;;;;;;52.67;20.50;;;0.30;99.90;;;;;;5039506;28;20056;-76
2023/02/07 06:28:24;;;;;;;55.00;20.43;;;0.30;99.90;;;;;;5073836;28;20453;-77
2023/02/07 06:30:51;;;;;;;48.40;20.30;;;0.30;99.90;;;;;;5055837;28;20033;-77
2023/02/07 06:33:16;;;;;;;45.30;20.03;;;0.30;99.90;;;;;;5046518;28;20033;-77
2023/02/07 06:35:46;;;;;;;53.70;19.70;;;0.30;99.90;;;;;;5043223;28;20404;-77
2023/02/07 06:38:13;;;;;;;51.07;19.60;;;0.30;99.90;;;;;;5046500;28;20025;-77
2023/02/07 06:40:39;;;;;;;47.77;19.80;;;0.30;99.90;;;;;;5043605;28;20029;-77
2023/02/07 06:43:04;;;;;;;55.60;22.17;;;0.30;99.90;;;;;;5026615;28;20048;-77
2023/02/07 06:45:30;;;;;;;47.23;19.87;;;0.30;99.90;;;;;;5042697;28;20033;-76
2023/02/07 06:47:55;;;;;;;46.87;20.37;;;0.30;99.90;;;;;;5043903;28;20145;-77
2023/02/07 06:50:21;;;;;;;44.77;18.90;;;0.30;99.90;;;;;;5049339;28;20074;-77
2023/02/07 06:52:47;;;;;;;47.97;20.53;;;0.30;99.90;;;;;;5028354;28;20057;-76
2023/02/07 06:55:12;;;;;;;45.87;19.80;;;0.30;99.90;;;;;;5031222;28;20111;-77
2023/02/07 06:57:38;;;;;;;52.13;20.57;;;0.20;99.90;;;;;;5054177;28;20044;-77
2023/02/07 07:00:04;;;;;;;50.10;19.70;;;0.30;99.90;;;;;;5053570;28;20065;-76
2023/02/07 07:02:30;;;;;;;52.57;21.23;;;0.20;99.90;;;;;;5037230;28;20098;-77
2023/02/07 07:04:55;;;;;;;54.40;21.70;;;0.20;99.90;;;;;;5053922;28;20112;-77
2023/02/07 07:07:21;;;;;;;52.57;20.93;;;0.20;99.90;;;;;;5054925;28;20057;-76
2023/02/07 07:09:47;;;;;;;53.33;19.77;;;0.30;99.90;;;;;;5037255;28;20028;-76
2023/02/07 07:12:12;;;;;;;48.20;19.80;;;0.30;99.90;;;;;;5053811;28;20029;-77
2023/02/07 07:14:38;;;;;;;52.87;20.80;;;0.30;99.90;;;;;;5036308;28;20055;-77
2023/02/07 07:17:04;;;;;;;44.47;18.13;;;0.20;99.90;;;;;;5033211;28;20046;-77
2023/02/07 07:19:29;;;;;;;52.70;20.17;;;0.20;99.90;;;;;;5033387;28;20030;-77
2023/02/07 07:21:55;;;;;;;53.60;21.37;;;0.20;99.90;;;;;;5000294;28;20176;-77
2023/02/07 07:24:21;;;;;;;57.40;21.30;;;0.30;99.90;;;;;;5033366;28;20061;-77
2023/02/07 07:26:47;;;;;;;50.93;21.13;;;0.30;99.90;;;;;;5049801;28;20041;-77
2023/02/07 07:29:12;;;;;;;50.50;20.20;;;0.30;99.90;;;;;;5049769;28;20113;-77
2023/02/07 07:31:38;;;;;;;55.43;21.57;;;0.30;99.90;;;;;;5049554;28;20075;-77
2023/02/07 07:34:04;;;;;;;49.97;21.17;;;0.30;99.90;;;;;;5032575;28;20083;-77
2023/02/07 07:36:29;;;;;;;53.43;21.50;;;0.40;99.90;;;;;;5016308;28;20195;-77
2023/02/07 07:38:55;;;;;;;56.17;20.97;;;0.30;99.90;;;;;;5033465;28;20029;-78
2023/02/07 07:41:21;;;;;;;59.90;22.80;;;0.40;99.90;;;;;;5049891;28;20080;-77
2023/02/07 07:43:46;;;;;;;60.30;23.23;;;0.40;99.90;;;;;;5034636;28;20112;-77
2023/02/07 07:46:12;;;;;;;53.80;22.23;;;0.40;99.90;;;;;;5033120;28;20033;-77
2023/02/07 07:48:38;;;;;;;58.20;24.17;;;0.50;99.90;;;;;;5034417;28;20030;-77
2023/02/07 07:51:04;;;;;;;56.37;22.60;;;0.50;99.90;;;;;;5032832;28;20029;-77
2023/02/07 07:53:30;;;;;;;59.43;23.47;;;0.50;99.90;;;;;;5033062;28;20065;-77
2023/02/07 07:55:56;;;;;;;59.77;23.87;;;0.50;99.90;;;;;;5033154;28;20033;-77
2023/02/07 07:58:23;;;;;;;62.43;24.60;;;0.50;99.90;;;;;;5049653;28;20084;-77
2023/02/07 08:00:49;;;;;;;58.93;24.63;;;0.50;99.90;;;;;;5049448;28;20393;-78
2023/02/07 08:03:16;;;;;;;57.23;21.90;;;0.60;99.90;;;;;;5032873;28;20465;-77
2023/02/07 08:05:43;;;;;;;54.20;21.77;;;0.60;99.90;;;;;;5016128;28;20394;-77
2023/02/07 08:08:08;;;;;;;60.87;23.93;;;0.70;99.90;;;;;;5049439;28;20030;-77
2023/02/07 08:10:34;;;;;;;55.00;22.83;;;0.60;99.90;;;;;;4999891;28;20030;-77
2023/02/07 08:13:00;;;;;;;51.17;21.87;;;0.60;99.90;;;;;;5033739;28;20025;-77
2023/02/07 08:15:26;;;;;;;56.33;22.93;;;0.70;99.90;;;;;;5032608;28;20053;-76
2023/02/07 08:17:51;;;;;;;56.03;24.27;;;0.60;99.90;;;;;;5032687;28;20076;-78
2023/02/07 08:20:17;;;;;;;59.57;22.73;;;0.60;99.90;;;;;;5032712;28;20083;-77
2023/02/07 08:22:42;;;;;;;48.87;21.83;;;0.70;99.90;;;;;;5016052;28;20084;-77
2023/02/07 08:25:08;;;;;;;48.13;19.93;;;0.70;99.90;;;;;;5016424;28;20029;-77
2023/02/07 08:27:34;;;;;;;49.20;22.37;;;0.70;99.90;;;;;;5016001;28;20029;-77
2023/02/07 08:30:00;;;;;;;45.57;21.30;;;0.70;99.90;;;;;;5032262;28;20470;-77
2023/02/07 08:32:27;;;;;;;46.43;20.97;;;0.70;99.90;;;;;;5015947;28;20082;-77
2023/02/07 08:34:53;;;;;;;43.70;19.67;;;0.80;99.90;;;;;;5032534;28;20390;-77
2023/02/07 08:37:18;;;;;;;40.80;19.13;;;0.80;99.90;;;;;;5048447;28;20037;-77
2023/02/07 08:39:44;;;;;;;45.47;20.57;;;0.80;99.90;;;;;;5032379;28;20034;-77
2023/02/07 08:42:10;;;;;;;41.60;20.27;;;1.10;99.90;;;;;;5048613;28;20029;-77
2023/02/07 08:44:37;;;;;;;46.50;20.50;;;1.00;99.90;;;;;;5048610;28;20390;-77
2023/02/07 08:47:03;;;;;;;43.63;20.13;;;1.00;99.90;;;;;;5032334;28;20131;-77
2023/02/07 08:49:29;;;;;;;43.70;20.50;;;1.10;99.90;;;;;;5033495;28;20171;-77
2023/02/07 08:51:55;;;;;;;42.50;20.00;;;1.10;99.90;;;;;;5032231;28;20442;-78
2023/02/07 08:54:21;;;;;;;38.30;18.30;;;1.20;99.90;;;;;;5048487;28;20033;-78
2023/02/07 08:56:46;;;;;;;41.00;18.73;;;1.20;99.90;;;;;;5015634;28;20041;-77
2023/02/07 08:59:12;;;;;;;39.53;19.67;;;1.20;99.90;;;;;;5048402;28;20663;-77
2023/02/07 09:01:38;;;;;;;41.30;19.37;;;1.30;99.90;;;;;;5031689;28;20041;-78
2023/02/07 09:04:03;;;;;;;40.90;19.70;;;1.30;99.90;;;;;;4999247;28;20032;-78
2023/02/07 09:06:29;;;;;;;46.27;21.73;;;1.40;99.90;;;;;;5048139;28;20116;-78
2023/02/07 09:08:55;;;;;;;44.17;21.97;;;1.50;99.90;;;;;;5033224;28;20049;-78
2023/02/07 09:11:21;;;;;;;48.60;22.33;;;1.50;99.90;;;;;;5014876;28;20207;-78
2023/02/07 09:13:47;;;;;;;42.50;20.93;;;1.60;99.90;;;;;;5048348;28;20480;-77
2023/02/07 09:16:13;;;;;;;46.17;21.10;;;1.60;99.90;;;;;;5031662;28;20136;-78
2023/02/07 09:18:40;;;;;;;41.87;20.07;;;1.60;99.90;;;;;;5031850;28;20533;-77
2023/02/07 09:21:06;;;;;;;40.67;20.67;;;1.70;99.90;;;;;;5032872;28;20029;-77
2023/02/07 09:23:34;;;;;;;45.10;23.23;;;1.80;99.90;;;;;;5048506;28;20034;-77
2023/02/07 09:26:02;;;;;;;47.20;22.93;;;1.80;99.90;;;;;;5032129;28;20175;-77
2023/02/07 09:28:28;;;;;;;52.00;23.87;;;1.90;99.90;;;;;;5032824;28;20022;-77
2023/02/07 09:30:54;;;;;;;45.53;21.63;;;2.00;99.90;;;;;;5048370;28;20116;-78
2023/02/07 09:33:22;;;;;;;45.10;21.73;;;1.90;99.90;;;;;;5033285;28;20041;-77
2023/02/07 09:35:48;;;;;;;47.20;22.17;;;2.10;99.90;;;;;;5032950;28;20029;-77
2023/02/07 09:38:20;;;;;;;46.00;21.03;;;2.10;99.90;;;;;;5048343;28;20026;-78
2023/02/07 09:40:49;;;;;;;54.33;24.47;;;2.30;99.90;;;;;;5048014;28;20120;-78
2023/02/07 09:43:27;;;;;;;46.90;21.13;;;2.20;99.90;;;;;;5048238;28;20424;-78
2023/02/07 09:46:00;;;;;;;44.63;20.47;;;2.30;99.90;;;;;;5032788;28;20065;-78
2023/02/07 09:48:50;;;;;;;50.63;23.43;;;2.40;99.90;;;;;;5048340;28;20029;-78
2023/02/07 09:51:20;;;;;;;48.40;21.63;;;2.50;99.90;;;;;;5031680;28;20108;-77
2023/02/07 09:53:53;;;;;;;49.50;21.40;;;2.70;99.90;;;;;;5032753;28;20049;-78
2023/02/07 09:56:21;;;;;;;53.08;23.60;;;2.80;99.90;;;;;;5049799;28;20500;-78
2023/02/07 09:58:56;;;;;;;50.10;21.77;;;2.90;99.90;;;;;;5051607;28;20502;-78
2023/02/07 10:01:32;;;;;;;49.47;22.47;;;3.20;99.90;;;;;;5036503;28;20064;-78
2023/02/07 10:04:23;;;;;;;43.80;20.90;;;3.60;99.90;;;;;;5036470;28;20022;-78
2023/02/07 10:06:55;;;;;;;42.00;18.53;;;4.10;99.90;;;;;;5036230;28;20026;-78
2023/02/07 10:09:26;;;;;;;41.67;21.10;;;4.60;99.90;;;;;;5036174;28;20018;-78
2023/02/07 10:12:10;;;;;;;43.57;20.70;;;5.20;99.90;;;;;;5051432;28;20025;-78
2023/02/07 10:14:58;;;;;;;36.55;19.23;;;5.90;99.90;;;;;;5036242;28;20041;-78
2023/02/07 10:18:00;;;;;;;31.73;17.90;;;6.70;99.90;;;;;;5036205;28;20485;-78
2023/02/07 10:20:53;;;;;;;40.65;18.27;;;7.70;99.90;;;;;;5021878;28;20057;-79
2023/02/07 10:23:46;;;;;;;30.95;15.18;;;8.50;99.90;;;;;;5035957;28;20017;-77
2023/02/07 10:26:33;;;;;;;26.55;15.10;;;9.40;99.90;;;;;;5051184;28;20462;-77
2023/02/07 10:29:12;;;;;;;25.80;14.15;;;10.30;99.90;;;;;;5051412;28;20044;-79
2023/02/07 10:31:46;;;;;;;24.73;15.25;;;11.00;99.90;;;;;;5051347;28;20534;-77
2023/02/07 10:34:24;;;;;;;23.35;13.55;;;11.80;99.90;;;;;;5051424;28;20119;-78
2023/02/07 10:36:51;;;;;;;20.10;12.48;;;12.40;99.90;;;;;;5050822;28;20069;-77
2023/02/07 10:39:26;;;;;;;18.08;11.05;;;13.00;99.90;;;;;;5035477;28;20030;-78
2023/02/07 10:41:54;;;;;;;15.43;9.50;;;13.70;99.10;;;;;;5051114;28;20060;-78
2023/02/07 10:44:21;;;;;;;13.98;8.68;;;14.30;96.70;;;;;;5036107;28;20049;-78
2023/02/07 10:46:56;;;;;;;15.73;9.00;;;14.70;93.80;;;;;;5034218;28;20033;-77
2023/02/07 10:49:28;;;;;;;13.88;8.45;;;15.30;90.80;;;;;;5050741;28;20386;-78
2023/02/07 10:52:02;;;;;;;14.52;8.15;;;15.70;86.80;;;;;;5051038;28;20026;-77
2023/02/07 10:54:28;;;;;;;12.10;7.40;;;16.10;82.90;;;;;;5051106;28;20038;-78
2023/02/07 10:56:58;;;;;;;12.40;7.53;;;16.50;81.40;;;;;;5034125;28;20042;-78
2023/02/07 10:59:31;;;;;;;10.63;6.65;;;16.90;77.50;;;;;;5035755;28;20053;-78
2023/02/07 11:01:57;;;;;;;8.75;5.05;;;17.00;73.50;;;;;;5035159;28;20108;-78
2023/02/07 11:04:35;;;;;;;8.48;5.22;;;17.30;70.10;;;;;;5033985;28;20168;-77
2023/02/07 11:07:03;;;;;;;10.07;6.10;;;17.50;68.00;;;;;;5032796;28;20525;-78
2023/02/07 11:09:30;;;;;;;9.65;5.78;;;17.80;64.90;;;;;;5033113;28;20029;-78
2023/02/07 11:11:57;;;;;;;9.82;5.93;;;18.00;62.80;;;;;;5033540;28;20028;-78
2023/02/07 11:14:27;;;;;;;11.68;6.18;;;18.20;61.40;;;;;;5050338;28;20060;-78
2023/02/07 11:16:55;;;;;;;10.07;6.13;;;18.50;59.30;;;;;;5050452;28;20054;-77
2023/02/07 11:19:27;;;;;;;8.75;4.88;;;18.70;58.90;;;;;;5017465;28;20030;-79
2023/02/07 11:22:05;;;;;;;10.00;5.57;;;18.90;56.90;;;;;;5034587;28;20104;-78
2023/02/07 11:24:34;;;;;;;7.90;4.75;;;19.10;54.80;;;;;;5033652;28;20025;-78
2023/02/07 11:27:16;;;;;;;8.85;5.20;;;19.40;54.50;;;;;;5034838;28;20033;-78
2023/02/07 11:29:58;;;;;;;8.10;4.65;;;19.60;53.00;;;;;;5033897;28;20044;-78
2023/02/07 11:32:26;;;;;;;7.90;4.15;;;19.80;51.50;;;;;;5033313;28;20022;-78
2023/02/07 11:35:04;;;;;;;7.13;4.32;;;20.00;50.50;;;;;;5033489;28;20529;-78
2023/02/07 11:37:32;;;;;;;7.57;4.10;;;20.10;49.70;;;;;;5033036;28;20033;-78
2023/02/07 11:40:21;;;;;;;8.18;4.50;;;20.30;48.80;;;;;;5034737;28;20477;-78
2023/02/07 11:42:49;;;;;;;6.20;3.50;;;20.50;47.70;;;;;;5033462;28;20026;-78
2023/02/07 11:45:20;;;;;;;9.35;3.92;;;20.60;47.40;;;;;;5032890;28;20030;-78
2023/02/07 11:47:48;;;;;;;6.88;3.97;;;20.70;45.10;;;;;;5034230;28;20034;-78
2023/02/07 11:50:25;;;;;;;6.53;3.80;;;20.60;45.70;;;;;;5050224;28;20030;-78
2023/02/07 11:52:57;;;;;;;7.70;4.18;;;20.60;45.60;;;;;;5034371;28;20119;-78
2023/02/07 11:55:34;;;;;;;6.90;3.95;;;20.60;45.60;;;;;;5033293;28;20026;-78
2023/02/07 11:58:10;;;;;;;7.30;4.18;;;20.70;45.40;;;;;;5032945;28;20127;-78
2023/02/07 12:00:37;;;;;;;8.85;4.60;;;20.70;45.40;;;;;;5034566;28;20050;-78
2023/02/07 12:03:07;;;;;;;7.45;4.20;;;20.80;45.70;;;;;;5034405;28;20086;-78
2023/02/07 12:05:44;;;;;;;5.50;3.70;;;21.10;45.10;;;;;;5032754;28;20021;-78
2023/02/07 12:08:14;;;;;;;6.47;3.75;;;21.40;44.00;;;;;;5032709;28;20029;-78
2023/02/07 12:10:43;;;;;;;6.50;3.45;;;21.50;43.70;;;;;;5033734;28;20032;-78
2023/02/07 12:13:15;;;;;;;7.85;4.25;;;21.70;43.60;;;;;;5049676;28;20028;-78
2023/02/07 12:15:55;;;;;;;9.18;4.93;;;21.90;42.70;;;;;;5039223;28;20473;-78
2023/02/07 12:18:32;;;;;;;5.65;3.58;;;22.10;41.90;;;;;;5053238;28;20037;-77
2023/02/07 12:21:19;;;;;;;7.07;4.03;;;22.20;41.80;;;;;;5053834;28;20357;-78
2023/02/07 12:23:56;;;;;;;5.55;3.50;;;22.30;41.60;;;;;;5036264;28;20107;-78
2023/02/07 12:26:50;;;;;;;5.70;3.20;;;22.60;41.40;;;;;;5052566;28;20021;-78
2023/02/07 12:29:40;;;;;;;5.60;4.03;;;22.80;40.00;;;;;;5053500;28;20527;-78
2023/02/07 12:32:36;;;;;;;6.85;3.72;;;22.80;39.90;;;;;;5053735;28;20047;-78
2023/02/07 12:35:24;;;;;;;5.40;2.72;;;22.80;39.80;;;;;;5053961;28;20095;-78
2023/02/07 12:38:02;;;;;;;5.50;3.58;;;22.90;40.30;;;;;;5053409;28;20029;-78
2023/02/07 12:40:53;;;;;;;6.35;4.03;;;23.00;40.40;;;;;;5053455;28;20029;-78
2023/02/07 12:43:31;;;;;;;6.15;3.33;;;23.10;40.20;;;;;;5052147;28;20021;-79
2023/02/07 12:46:00;;;;;;;6.40;3.78;;;23.10;40.30;;;;;;5049762;28;20099;-78
2023/02/07 12:49:04;;;;;;;6.70;4.15;;;23.40;39.80;;;;;;5053149;28;20108;-78
2023/02/07 12:51:51;;;;;;;6.07;3.67;;;23.50;39.20;;;;;;5053114;28;20024;-78
2023/02/07 12:54:30;;;;;;;5.43;3.47;;;23.70;39.50;;;;;;5053233;28;20381;-78
2023/02/07 12:57:14;;;;;;;5.95;3.00;;;23.90;39.90;;;;;;5053302;28;20146;-79